createdAt,value
2022-10-16T00:00:28.602Z,17.83
2022-10-16T00:02:30.646Z,20.40
2022-10-16T00:04:32.953Z,12.88
2022-10-16T00:06:34.995Z,13.88
2022-10-16T00:08:37.885Z,16.38
2022-10-16T00:10:41.235Z,13.85
2022-10-16T00:12:43.442Z,11.85
2022-10-16T00:14:45.368Z,11.38
2022-10-16T00:16:47.372Z,12.93
2022-10-16T00:18:49.398Z,13.70
2022-10-16T00:20:52.037Z,15.18
2022-10-16T00:22:54.599Z,15.70
2022-10-16T00:24:57.141Z,14.05
2022-10-16T00:26:59.156Z,14.43
2022-10-16T00:29:01.805Z,13.77
2022-10-16T00:31:13.847Z,13.23
2022-10-16T00:33:15.972Z,15.35
2022-10-16T00:35:18.101Z,14.43
2022-10-16T00:37:20.125Z,13.38
2022-10-16T00:39:22.727Z,15.48
2022-10-16T00:41:28.275Z,13.35
2022-10-16T00:43:45.344Z,14.30
2022-10-16T00:45:47.296Z,12.55
2022-10-16T00:47:52.648Z,13.27
2022-10-16T00:50:01.154Z,17.10
2022-10-16T00:52:03.798Z,14.35
2022-10-16T00:54:16.456Z,14.63
2022-10-16T00:56:19.375Z,13.95
2022-10-16T00:58:22.251Z,15.45
2022-10-16T01:00:27.482Z,18.35
2022-10-16T01:02:29.546Z,14.85
2022-10-16T01:04:36.565Z,14.02
2022-10-16T01:06:50.422Z,14.00
2022-10-16T01:09:01.817Z,13.52
2022-10-16T01:11:23.108Z,13.52
2022-10-16T01:13:32.953Z,13.18
2022-10-16T01:15:50.889Z,13.00
2022-10-16T01:18:02.561Z,9.35
2022-10-16T01:20:19.334Z,11.70
2022-10-16T01:22:24.414Z,16.27
2022-10-16T01:24:38.789Z,14.57
2022-10-16T01:27:05.349Z,15.35
2022-10-16T01:29:10.475Z,13.00
2022-10-16T01:31:18.439Z,14.70
2022-10-16T01:33:34.101Z,15.88
2022-10-16T01:35:47.639Z,14.73
2022-10-16T01:37:49.642Z,14.48
2022-10-16T01:39:55.966Z,16.55
2022-10-16T01:42:18.736Z,13.07
2022-10-16T01:44:29.577Z,12.07
2022-10-16T01:46:33.485Z,11.95
2022-10-16T01:48:36.669Z,12.05
2022-10-16T01:50:42.827Z,19.10
2022-10-16T01:52:47.903Z,16.13
2022-10-16T01:54:53.884Z,15.45
2022-10-16T01:56:57.874Z,9.98
2022-10-16T01:59:07.216Z,13.32
2022-10-16T02:01:17.777Z,13.65
2022-10-16T02:03:21.144Z,12.82
2022-10-16T02:05:35.226Z,13.15
2022-10-16T02:07:37.629Z,11.52
2022-10-16T02:09:40.225Z,11.25
2022-10-16T02:11:42.191Z,10.63
2022-10-16T02:13:56.671Z,12.13
2022-10-16T02:15:58.650Z,10.07
2022-10-16T02:18:01.287Z,12.32
2022-10-16T02:20:04.482Z,11.20
2022-10-16T02:22:09.546Z,10.73
2022-10-16T02:24:45.522Z,12.80
2022-10-16T02:26:59.143Z,9.57
2022-10-16T02:29:06.832Z,9.38
2022-10-16T02:31:13.140Z,8.88
2022-10-16T02:33:17.528Z,14.68
2022-10-16T02:35:22.380Z,8.25
2022-10-16T02:37:26.101Z,9.23
2022-10-16T02:39:31.005Z,9.55
2022-10-16T02:41:34.053Z,9.07
2022-10-16T02:43:36.252Z,10.45
2022-10-16T02:45:38.263Z,16.27
2022-10-16T02:47:42.617Z,14.43
2022-10-16T02:49:45.080Z,10.82
2022-10-16T02:51:46.994Z,9.88
2022-10-16T02:53:48.931Z,11.68
2022-10-16T02:55:51.057Z,11.13
2022-10-16T02:57:53.748Z,15.10
2022-10-16T02:59:55.779Z,9.57
2022-10-16T03:01:57.814Z,13.23
2022-10-16T03:03:59.716Z,11.32
2022-10-16T03:06:01.860Z,10.85
2022-10-16T03:08:04.557Z,10.40
2022-10-16T03:10:07.192Z,13.52
2022-10-16T03:12:09.302Z,10.27
2022-10-16T03:14:11.300Z,8.45
2022-10-16T03:16:13.238Z,13.93
2022-10-16T03:18:15.294Z,10.35
2022-10-16T03:20:17.491Z,14.57
2022-10-16T03:22:19.400Z,14.60
2022-10-16T03:24:21.222Z,12.10
2022-10-16T03:26:23.315Z,9.85
2022-10-16T03:28:25.345Z,11.15
2022-10-16T03:30:27.430Z,9.10
2022-10-16T03:32:29.767Z,10.77
2022-10-16T03:34:31.974Z,10.60
2022-10-16T03:36:34.718Z,9.40
2022-10-16T03:38:36.675Z,11.05
2022-10-16T03:40:38.649Z,11.98
2022-10-16T03:42:40.643Z,12.65
2022-10-16T03:44:42.703Z,14.18
2022-10-16T03:46:45.104Z,13.90
2022-10-16T03:48:47.118Z,15.43
2022-10-16T03:50:52.852Z,12.00
2022-10-16T03:52:55.007Z,14.00
2022-10-16T03:54:57.124Z,13.52
2022-10-16T03:56:59.394Z,14.10
2022-10-16T03:59:01.637Z,13.57
2022-10-16T04:01:06.961Z,9.93
2022-10-16T04:03:09.027Z,10.20
2022-10-16T04:05:11.172Z,9.55
2022-10-16T04:07:13.127Z,10.77
2022-10-16T04:09:15.490Z,12.50
2022-10-16T04:11:17.602Z,9.68
2022-10-16T04:15:26.995Z,9.57
2022-10-16T04:17:29.221Z,13.95
2022-10-16T04:19:31.208Z,13.15
2022-10-16T04:21:33.379Z,10.90
2022-10-16T04:23:35.595Z,8.65
2022-10-16T04:25:37.956Z,9.68
2022-10-16T04:27:42.282Z,9.65
2022-10-16T04:29:47.410Z,10.73
2022-10-16T04:31:49.425Z,12.75
2022-10-16T04:33:51.487Z,10.55
2022-10-16T04:36:00.857Z,12.55
2022-10-16T04:38:02.956Z,10.63
2022-10-16T04:40:06.019Z,9.48
2022-10-16T04:42:08.304Z,13.00
2022-10-16T04:44:10.782Z,24.45
2022-10-16T04:46:14.137Z,24.38
2022-10-16T04:48:16.141Z,20.10
2022-10-16T04:50:18.266Z,24.73
2022-10-16T04:52:37.134Z,15.40
2022-10-16T04:54:39.455Z,13.65
2022-10-16T04:56:47.901Z,12.40
2022-10-16T04:58:49.991Z,14.68
2022-10-16T05:00:51.892Z,17.30
2022-10-16T05:02:54.147Z,15.00
2022-10-16T05:04:56.215Z,15.93
2022-10-16T05:06:58.263Z,11.75
2022-10-16T05:09:00.331Z,17.35
2022-10-16T05:11:02.970Z,19.85
2022-10-16T05:13:05.209Z,13.02
2022-10-16T05:15:07.801Z,13.55
2022-10-16T05:17:09.936Z,18.92
2022-10-16T05:19:28.553Z,15.98
2022-10-16T05:21:31.544Z,15.27
2022-10-16T05:23:34.092Z,14.20
2022-10-16T05:25:36.059Z,14.00
2022-10-16T05:27:38.136Z,15.35
2022-10-16T05:29:40.071Z,13.23
2022-10-16T05:31:42.127Z,11.23
2022-10-16T05:33:45.300Z,13.18
2022-10-16T05:35:47.604Z,15.13
2022-10-16T05:37:49.679Z,19.08
2022-10-16T05:39:52.521Z,21.00
2022-10-16T05:41:54.549Z,22.25
2022-10-16T05:43:56.555Z,21.73
2022-10-16T05:46:01.242Z,19.63
2022-10-16T05:48:03.077Z,17.67
2022-10-16T05:50:05.529Z,13.55
2022-10-16T05:52:07.544Z,14.73
2022-10-16T05:54:10.032Z,13.23
2022-10-16T05:56:13.846Z,11.10
2022-10-16T05:58:15.959Z,11.23
2022-10-16T06:00:18.239Z,9.18
2022-10-16T06:02:20.246Z,10.35
2022-10-16T06:04:22.199Z,12.55
2022-10-16T06:06:27.024Z,11.25
2022-10-16T06:08:29.021Z,11.55
2022-10-16T06:10:30.921Z,12.77
2022-10-16T06:12:32.946Z,10.68
2022-10-16T06:14:34.884Z,12.63
2022-10-16T06:16:38.169Z,12.02
2022-10-16T06:18:40.512Z,14.98
2022-10-16T06:20:42.452Z,17.00
2022-10-16T06:22:44.390Z,18.08
2022-10-16T06:24:47.630Z,14.68
2022-10-16T06:26:49.501Z,18.33
2022-10-16T06:28:51.583Z,13.40
2022-10-16T06:31:04.121Z,10.70
2022-10-16T06:33:09.160Z,12.90
2022-10-16T06:35:10.939Z,11.30
2022-10-16T06:37:12.779Z,12.20
2022-10-16T06:39:14.553Z,13.80
2022-10-16T06:41:19.390Z,11.25
2022-10-16T06:43:21.174Z,12.32
2022-10-16T06:45:23.233Z,9.88
2022-10-16T06:47:25.112Z,13.82
2022-10-16T06:49:27.023Z,11.50
2022-10-16T06:51:29.061Z,9.95
2022-10-16T06:53:40.022Z,11.18
2022-10-16T06:55:46.395Z,12.60
2022-10-16T06:57:49.329Z,11.70
2022-10-16T06:59:55.223Z,9.18
2022-10-16T07:01:57.419Z,10.48
2022-10-16T07:04:02.417Z,10.90
2022-10-16T07:06:06.007Z,8.00
2022-10-16T07:08:07.984Z,6.63
2022-10-16T07:10:10.256Z,11.40
2022-10-16T07:12:12.299Z,6.70
2022-10-16T07:14:18.414Z,7.20
2022-10-16T07:16:22.548Z,6.35
2022-10-16T07:18:27.673Z,5.75
2022-10-16T07:20:29.892Z,9.77
2022-10-16T07:22:32.079Z,8.38
2022-10-16T07:24:34.328Z,9.23
2022-10-16T07:26:37.832Z,8.38
2022-10-16T07:28:40.976Z,7.38
2022-10-16T07:30:43.161Z,8.45
2022-10-16T07:32:45.454Z,6.93
2022-10-16T07:34:47.630Z,10.55
2022-10-16T07:36:52.984Z,8.20
2022-10-16T07:38:58.672Z,7.63
2022-10-16T07:41:05.991Z,12.38
2022-10-16T07:43:07.905Z,12.80
2022-10-16T07:45:10.305Z,11.52
2022-10-16T07:47:12.238Z,9.63
2022-10-16T07:49:14.842Z,10.63
2022-10-16T07:51:20.303Z,9.90
2022-10-16T07:53:24.806Z,9.05
2022-10-16T07:55:29.126Z,8.70
2022-10-16T07:57:31.160Z,9.70
2022-10-16T07:59:33.441Z,9.95
2022-10-16T08:01:35.899Z,10.75
2022-10-16T08:03:38.172Z,10.95
2022-10-16T08:05:40.378Z,12.88
2022-10-16T08:07:42.408Z,9.40
2022-10-16T08:09:44.423Z,8.65
2022-10-16T08:11:46.979Z,13.30
2022-10-16T08:13:49.395Z,8.05
2022-10-16T08:15:51.533Z,8.07
2022-10-16T08:18:01.843Z,9.77
2022-10-16T08:20:04.270Z,9.07
2022-10-16T08:22:06.798Z,7.40
2022-10-16T08:24:09.825Z,8.75
2022-10-16T08:26:13.088Z,12.02
2022-10-16T08:28:15.149Z,8.32
2022-10-16T08:30:18.684Z,8.23
2022-10-16T08:32:23.966Z,7.18
2022-10-16T08:34:29.008Z,6.53
2022-10-16T08:36:33.917Z,6.00
2022-10-16T08:38:36.455Z,6.82
2022-10-16T08:40:39.066Z,7.03
2022-10-16T08:42:41.036Z,6.50
2022-10-16T08:44:45.581Z,6.82
2022-10-16T08:47:23.349Z,6.57
2022-10-16T08:49:25.829Z,5.93
2022-10-16T08:51:32.235Z,6.03
2022-10-16T08:53:50.961Z,7.50
2022-10-16T08:55:54.425Z,8.40
2022-10-16T08:57:57.035Z,10.32
2022-10-16T09:00:10.060Z,5.97
2022-10-16T09:02:25.020Z,5.38
2022-10-16T09:04:51.793Z,5.65
2022-10-16T09:07:00.556Z,5.88
2022-10-16T09:09:22.488Z,5.75
2022-10-16T09:11:51.741Z,7.97
2022-10-16T09:14:37.311Z,6.22
2022-10-16T09:16:48.036Z,7.47
2022-10-16T09:19:13.016Z,5.68
2022-10-16T09:21:18.372Z,5.45
2022-10-16T09:23:23.547Z,4.68
2022-10-16T09:25:26.333Z,5.53
2022-10-16T09:27:33.695Z,6.47
2022-10-16T09:29:37.217Z,6.32
2022-10-16T09:31:39.458Z,6.47
2022-10-16T09:33:42.133Z,4.93
2022-10-16T09:35:55.943Z,6.05
2022-10-16T09:37:58.164Z,6.03
2022-10-16T09:40:05.085Z,5.20
2022-10-16T09:42:15.289Z,5.88
2022-10-16T09:44:30.990Z,8.75
2022-10-16T09:46:38.842Z,9.30
2022-10-16T09:48:46.164Z,9.43
2022-10-16T09:53:11.877Z,5.18
2022-10-16T09:55:19.462Z,9.45
2022-10-16T09:57:23.075Z,8.52
2022-10-16T09:59:27.374Z,8.05
2022-10-16T10:01:54.117Z,8.80
2022-10-16T10:04:02.294Z,4.80
2022-10-16T10:06:32.429Z,5.75
2022-10-16T10:08:34.459Z,4.30
2022-10-16T10:10:43.747Z,5.45
2022-10-16T10:12:46.688Z,7.93
2022-10-16T10:14:51.717Z,5.90
2022-10-16T10:17:05.892Z,7.13
2022-10-16T10:19:18.929Z,9.07
2022-10-16T10:21:20.978Z,17.98
2022-10-16T10:23:34.554Z,9.75
2022-10-16T10:26:05.614Z,8.63
2022-10-16T10:28:36.223Z,10.98
2022-10-16T10:31:00.018Z,10.63
2022-10-16T10:33:26.079Z,7.30
2022-10-16T10:36:03.528Z,19.88
2022-10-16T10:38:13.827Z,36.60
2022-10-16T10:40:40.997Z,58.58
2022-10-16T10:43:08.655Z,91.65
2022-10-16T10:45:19.685Z,66.22
2022-10-16T10:47:58.136Z,47.63
2022-10-16T10:50:24.111Z,28.73
2022-10-16T10:53:05.502Z,16.63
2022-10-16T10:55:25.070Z,7.22
2022-10-16T10:57:58.425Z,5.38
2022-10-16T11:00:10.384Z,7.50
2022-10-16T11:02:23.247Z,5.30
2022-10-16T11:04:31.167Z,5.55
2022-10-16T11:06:41.210Z,4.78
2022-10-16T11:08:57.669Z,5.40
2022-10-16T11:11:24.039Z,5.40
2022-10-16T11:13:45.061Z,10.98
2022-10-16T11:18:22.586Z,36.20
2022-10-16T11:20:27.516Z,25.20
2022-10-16T11:22:43.113Z,21.80
2022-10-16T11:25:15.432Z,11.88
2022-10-16T11:27:22.887Z,10.10
2022-10-16T11:29:30.263Z,11.77
2022-10-16T11:31:40.044Z,27.63
2022-10-16T11:36:29.685Z,12.13
2022-10-16T11:38:50.487Z,10.32
2022-10-16T11:40:58.881Z,7.28
2022-10-16T11:43:16.109Z,6.70
2022-10-16T11:45:43.700Z,5.95
2022-10-16T11:48:05.431Z,4.97
2022-10-16T11:50:18.854Z,5.28
2022-10-16T11:52:39.381Z,5.97
2022-10-16T11:54:47.188Z,7.50
2022-10-16T11:56:54.433Z,7.30
2022-10-16T12:06:44.910Z,8.27
2022-10-16T12:08:48.169Z,5.97
2022-10-16T12:10:50.299Z,4.22
2022-10-16T12:12:52.663Z,4.43
2022-10-16T12:15:17.621Z,5.55
2022-10-16T12:17:36.206Z,7.05
2022-10-16T12:19:38.683Z,5.88
2022-10-16T12:21:40.890Z,5.72
2022-10-16T12:23:50.360Z,6.90
2022-10-16T12:25:57.529Z,7.85
2022-10-16T12:28:06.035Z,5.28
2022-10-16T12:30:09.323Z,6.40
2022-10-16T12:32:48.638Z,7.55
2022-10-16T12:34:51.059Z,18.67
2022-10-16T12:36:55.120Z,9.43
2022-10-16T12:38:57.676Z,10.48
2022-10-16T12:41:13.284Z,7.30
2022-10-16T12:43:23.007Z,8.35
2022-10-16T12:45:33.579Z,8.65
2022-10-16T12:47:35.722Z,7.20
2022-10-16T12:49:40.983Z,6.95
2022-10-16T12:51:43.885Z,7.55
2022-10-16T12:53:45.885Z,7.60
2022-10-16T12:55:56.372Z,9.15
2022-10-16T12:58:19.572Z,7.15
2022-10-16T13:00:46.019Z,7.75
2022-10-16T13:03:12.362Z,16.17
2022-10-16T13:05:30.910Z,24.02
2022-10-16T13:07:42.151Z,17.50
2022-10-16T13:10:07.154Z,13.32
2022-10-16T13:13:11.962Z,13.15
2022-10-16T13:15:45.961Z,11.07
2022-10-16T13:17:50.763Z,12.95
2022-10-16T13:20:13.737Z,14.10
2022-10-16T13:22:30.909Z,16.63
2022-10-16T13:24:41.591Z,11.95
2022-10-16T13:27:04.766Z,10.60
2022-10-16T13:29:06.905Z,7.20
2022-10-16T13:31:26.202Z,10.88
2022-10-16T13:33:33.895Z,11.10
2022-10-16T13:35:37.688Z,11.32
2022-10-16T13:37:39.893Z,8.15
2022-10-16T13:39:41.958Z,9.52
2022-10-16T13:41:44.577Z,13.15
2022-10-16T13:43:54.220Z,8.55
2022-10-16T13:46:17.558Z,9.40
2022-10-16T13:48:19.704Z,6.32
2022-10-16T13:50:21.687Z,6.70
2022-10-16T13:52:24.186Z,7.03
2022-10-16T13:54:29.950Z,5.45
2022-10-16T13:56:34.198Z,5.95
2022-10-16T13:58:36.701Z,5.47
2022-10-16T14:00:41.491Z,5.22
2022-10-16T14:02:43.778Z,5.72
2022-10-16T14:04:47.417Z,6.18
2022-10-16T14:06:52.229Z,6.80
2022-10-16T14:09:30.239Z,6.68
2022-10-16T14:11:32.537Z,5.68
2022-10-16T14:13:46.848Z,5.35
2022-10-16T14:15:52.713Z,6.13
2022-10-16T14:17:55.072Z,5.97
2022-10-16T14:20:02.629Z,5.47
2022-10-16T14:22:39.484Z,8.60
2022-10-16T14:24:41.691Z,7.05
2022-10-16T14:26:50.631Z,8.10
2022-10-16T14:29:13.206Z,7.25
2022-10-16T14:31:24.198Z,6.15
2022-10-16T14:33:30.761Z,6.43
2022-10-16T14:35:40.051Z,6.43
2022-10-16T14:37:41.908Z,6.72
2022-10-16T14:39:43.837Z,6.18
2022-10-16T14:41:49.240Z,6.78
2022-10-16T14:43:57.132Z,7.57
2022-10-16T14:45:59.621Z,10.43
2022-10-16T14:48:32.056Z,7.43
2022-10-16T14:51:01.843Z,8.18
2022-10-16T14:53:13.005Z,7.05
2022-10-16T14:55:15.128Z,8.18
2022-10-16T14:57:23.437Z,6.70
2022-10-16T14:59:31.068Z,7.97
2022-10-16T15:01:32.930Z,8.98
2022-10-16T15:03:34.787Z,10.98
2022-10-16T15:05:36.870Z,10.02
2022-10-16T15:07:38.639Z,11.93
2022-10-16T15:09:43.760Z,14.85
2022-10-16T15:11:47.696Z,16.15
2022-10-16T15:13:49.939Z,21.88
2022-10-16T15:15:51.641Z,23.98
2022-10-16T15:17:57.540Z,21.13
2022-10-16T15:20:00.209Z,21.38
2022-10-16T15:22:02.266Z,21.10
2022-10-16T15:24:04.379Z,19.15
2022-10-16T15:26:06.277Z,19.58
2022-10-16T15:28:08.965Z,20.15
2022-10-16T15:30:11.359Z,18.20
2022-10-16T15:33:03.706Z,19.30
2022-10-16T15:35:05.944Z,18.98
2022-10-16T15:37:07.784Z,16.48
2022-10-16T15:39:18.499Z,18.52
2022-10-16T15:41:20.917Z,18.13
2022-10-16T15:43:22.955Z,15.18
2022-10-16T15:45:24.853Z,14.40
2022-10-16T15:47:26.864Z,14.15
2022-10-16T15:49:28.666Z,13.30
2022-10-16T15:51:30.560Z,13.00
2022-10-16T15:53:32.511Z,10.50
2022-10-16T15:55:35.305Z,10.05
2022-10-16T15:57:39.502Z,9.55
2022-10-16T15:59:41.323Z,9.63
2022-10-16T16:01:43.337Z,10.23
2022-10-16T16:03:45.524Z,8.05
2022-10-16T16:05:48.076Z,8.32
2022-10-16T16:07:51.091Z,9.02
2022-10-16T16:09:53.101Z,9.27
2022-10-16T16:11:55.138Z,7.85
2022-10-16T16:13:57.866Z,7.90
2022-10-16T16:16:00.189Z,8.68
2022-10-16T16:18:03.399Z,8.38
2022-10-16T16:20:06.588Z,8.85
2022-10-16T16:22:10.935Z,9.25
2022-10-16T16:24:15.171Z,11.52
2022-10-16T16:26:27.169Z,14.43
2022-10-16T16:28:29.130Z,13.43
2022-10-16T16:30:31.010Z,12.55
2022-10-16T16:32:33.156Z,13.60
2022-10-16T16:34:35.538Z,10.75
2022-10-16T16:36:37.717Z,11.13
2022-10-16T16:38:39.963Z,10.07
2022-10-16T16:40:41.924Z,8.65
2022-10-16T16:42:43.998Z,10.63
2022-10-16T16:44:46.092Z,9.30
2022-10-16T16:46:48.035Z,10.60
2022-10-16T16:48:54.606Z,8.52
2022-10-16T16:50:57.356Z,8.60
2022-10-16T16:52:59.266Z,12.23
2022-10-16T16:55:03.723Z,11.02
2022-10-16T16:57:05.911Z,11.32
2022-10-16T16:59:07.823Z,11.05
2022-10-16T17:01:26.762Z,11.63
2022-10-16T17:03:30.597Z,12.93
2022-10-16T17:05:32.648Z,12.43
2022-10-16T17:07:35.625Z,13.20
2022-10-16T17:09:37.639Z,12.52
2022-10-16T17:11:42.473Z,14.73
2022-10-16T17:13:44.664Z,15.45
2022-10-16T17:15:48.375Z,15.98
2022-10-16T17:17:50.795Z,15.27
2022-10-16T17:19:53.102Z,17.13
2022-10-16T17:21:55.216Z,16.65
2022-10-16T17:23:57.817Z,16.50
2022-10-16T17:26:08.308Z,16.08
2022-10-16T17:28:11.974Z,19.05
2022-10-16T17:30:13.988Z,15.45
2022-10-16T17:32:15.998Z,17.70
2022-10-16T17:34:18.370Z,13.70
2022-10-16T17:36:21.656Z,17.65
2022-10-16T17:38:23.783Z,17.10
2022-10-16T17:40:26.245Z,13.60
2022-10-16T17:42:28.561Z,13.25
2022-10-16T17:44:31.441Z,12.98
2022-10-16T17:46:37.004Z,12.77
2022-10-16T17:48:45.605Z,13.98
2022-10-16T17:50:47.624Z,10.70
2022-10-16T17:56:44.609Z,12.88
2022-10-16T17:58:52.069Z,11.00
2022-10-16T18:00:53.987Z,12.80
2022-10-16T18:02:55.875Z,11.73
2022-10-16T18:04:57.923Z,11.85
2022-10-16T18:07:00.811Z,15.95
2022-10-16T18:09:04.725Z,17.90
2022-10-16T18:11:06.899Z,15.48
2022-10-16T18:13:08.976Z,16.05
2022-10-16T18:15:11.286Z,18.15
2022-10-16T18:17:13.285Z,17.10
2022-10-16T18:19:15.132Z,14.57
2022-10-16T18:21:19.537Z,18.02
2022-10-16T18:23:21.588Z,19.50
2022-10-16T18:25:23.451Z,20.50
2022-10-16T18:27:25.549Z,22.98
2022-10-16T18:29:27.977Z,20.20
2022-10-16T18:31:31.054Z,20.35
2022-10-16T18:33:33.755Z,19.42
2022-10-16T18:35:36.557Z,19.67
2022-10-16T18:37:38.337Z,23.13
2022-10-16T18:39:40.309Z,26.05
2022-10-16T18:41:47.740Z,24.70
2022-10-16T18:43:49.818Z,25.02
2022-10-16T18:45:59.866Z,28.20
2022-10-16T18:48:02.180Z,29.92
2022-10-16T18:50:07.164Z,33.35
2022-10-16T18:52:12.827Z,34.75
2022-10-16T18:54:14.769Z,36.88
2022-10-16T18:56:18.771Z,36.00
2022-10-16T18:58:20.989Z,33.17
2022-10-16T19:00:23.144Z,31.90
2022-10-16T19:02:24.985Z,31.48
2022-10-16T19:04:26.928Z,32.95
2022-10-16T19:06:29.943Z,32.58
2022-10-16T19:08:33.829Z,29.95
2022-10-16T19:10:38.011Z,31.52
2022-10-16T19:12:41.569Z,28.73
2022-10-16T19:14:43.573Z,27.55
2022-10-16T19:16:45.456Z,27.25
2022-10-16T19:18:48.611Z,32.40
2022-10-16T19:20:50.996Z,30.48
2022-10-16T19:22:58.963Z,28.48
2022-10-16T19:25:01.310Z,27.65
2022-10-16T19:27:03.450Z,23.65
2022-10-16T19:29:07.458Z,20.90
2022-10-16T19:31:19.406Z,19.40
2022-10-16T19:33:21.852Z,21.55
2022-10-16T19:35:23.926Z,20.77
2022-10-16T19:37:27.486Z,20.85
2022-10-16T19:39:29.700Z,19.42
2022-10-16T19:41:37.670Z,18.02
2022-10-16T19:43:40.161Z,19.30
2022-10-16T19:45:42.412Z,21.70
2022-10-16T19:47:46.126Z,20.33
2022-10-16T19:49:50.291Z,18.25
2022-10-16T19:51:54.765Z,20.10
2022-10-16T19:54:02.145Z,24.10
2022-10-16T19:56:13.472Z,19.60
2022-10-16T19:58:15.640Z,15.88
2022-10-16T20:00:18.293Z,17.70
2022-10-16T20:02:20.710Z,12.75
2022-10-16T20:04:22.822Z,19.70
2022-10-16T20:06:25.641Z,15.98
2022-10-16T20:08:27.771Z,14.18
2022-10-16T20:10:32.918Z,15.85
2022-10-16T20:12:34.934Z,15.13
2022-10-16T20:14:37.379Z,17.92
2022-10-16T20:16:40.618Z,12.18
2022-10-16T20:18:42.797Z,12.93
2022-10-16T20:20:52.583Z,11.80
2022-10-16T20:22:54.628Z,13.73
2022-10-16T20:24:56.695Z,16.63
2022-10-16T20:27:00.170Z,10.45
2022-10-16T20:29:03.776Z,17.50
2022-10-16T20:31:13.550Z,11.68
2022-10-16T20:33:16.908Z,12.73
2022-10-16T20:35:18.915Z,13.05
2022-10-16T20:37:21.064Z,16.90
2022-10-16T20:39:23.393Z,12.68
2022-10-16T20:41:25.579Z,13.38
2022-10-16T20:43:27.578Z,13.13
2022-10-16T20:45:30.028Z,12.27
2022-10-16T20:47:32.094Z,17.60
2022-10-16T20:49:40.668Z,18.95
2022-10-16T20:51:44.109Z,16.83
2022-10-16T20:53:48.484Z,15.57
2022-10-16T20:55:50.767Z,18.02
2022-10-16T20:57:53.500Z,17.95
2022-10-16T20:59:55.945Z,18.30
2022-10-16T21:01:58.341Z,16.67
2022-10-16T21:04:02.701Z,15.30
2022-10-16T21:06:07.428Z,19.13
2022-10-16T21:08:09.619Z,17.98
2022-10-16T21:10:12.498Z,16.27
2022-10-16T21:12:14.829Z,17.15
2022-10-16T21:14:17.008Z,18.63
2022-10-16T21:16:19.287Z,17.15
2022-10-16T21:18:21.225Z,13.95
2022-10-16T21:20:23.307Z,11.60
2022-10-16T21:22:30.149Z,12.05
2022-10-16T21:24:32.678Z,12.32
2022-10-16T21:26:34.504Z,11.13
2022-10-16T21:28:36.508Z,11.32
2022-10-16T21:30:38.533Z,13.30
2022-10-16T21:32:40.781Z,12.32
2022-10-16T21:34:43.096Z,13.27
2022-10-16T21:36:45.162Z,14.82
2022-10-16T21:38:48.128Z,14.35
2022-10-16T21:40:51.380Z,14.27
2022-10-16T21:42:53.627Z,20.20
2022-10-16T21:44:55.732Z,20.45
2022-10-16T21:46:57.675Z,17.88
2022-10-16T21:49:02.016Z,19.30
2022-10-16T21:51:04.249Z,16.60
2022-10-16T21:53:06.754Z,24.88
2022-10-16T21:55:09.405Z,16.92
2022-10-16T21:57:11.492Z,12.27
2022-10-16T21:59:14.003Z,17.10
2022-10-16T22:01:19.208Z,15.77
2022-10-16T22:03:21.352Z,15.02
2022-10-16T22:05:23.750Z,14.07
2022-10-16T22:07:25.983Z,12.57
2022-10-16T22:09:28.303Z,13.98
2022-10-16T22:11:39.265Z,16.65
2022-10-16T22:13:42.804Z,14.00
2022-10-16T22:15:52.294Z,15.82
2022-10-16T22:17:54.420Z,13.57
2022-10-16T22:19:56.322Z,13.55
2022-10-16T22:22:00.628Z,11.85
2022-10-16T22:24:03.030Z,14.38
2022-10-16T22:26:11.148Z,12.65
2022-10-16T22:28:13.632Z,12.20
2022-10-16T22:30:15.831Z,14.50
2022-10-16T22:32:18.735Z,13.55
2022-10-16T22:34:20.930Z,14.07
2022-10-16T22:36:23.881Z,12.23
2022-10-16T22:38:25.974Z,13.40
2022-10-16T22:40:27.942Z,11.38
2022-10-16T22:42:29.940Z,14.77
2022-10-16T22:44:32.020Z,12.57
2022-10-16T22:46:33.915Z,13.38
2022-10-16T22:48:36.605Z,12.57
2022-10-16T22:50:38.603Z,16.20
2022-10-16T22:52:40.690Z,13.82
2022-10-16T22:54:43.044Z,14.30
2022-10-16T22:56:45.261Z,17.95
2022-10-16T22:58:47.381Z,12.73
2022-10-16T23:00:50.059Z,12.25
2022-10-16T23:02:52.077Z,14.10
2022-10-16T23:04:54.174Z,12.57
2022-10-16T23:06:56.301Z,11.27
2022-10-16T23:09:01.011Z,11.48
2022-10-16T23:11:09.081Z,12.13
2022-10-16T23:13:12.449Z,11.50
2022-10-16T23:15:14.594Z,9.80
2022-10-16T23:17:16.737Z,11.88
2022-10-16T23:19:18.679Z,10.93
2022-10-16T23:21:23.610Z,13.00
2022-10-16T23:23:25.620Z,13.57
2022-10-16T23:25:27.703Z,8.68
2022-10-16T23:27:32.472Z,11.68
2022-10-16T23:29:34.682Z,11.70
2022-10-16T23:31:36.690Z,9.18
2022-10-16T23:33:39.793Z,8.85
2022-10-16T23:35:41.766Z,9.63
2022-10-16T23:37:44.105Z,9.48
2022-10-16T23:39:46.082Z,10.15
2022-10-16T23:41:48.133Z,9.20
2022-10-16T23:43:51.513Z,9.10
2022-10-16T23:45:53.932Z,8.52
2022-10-16T23:47:56.078Z,9.93
2022-10-16T23:49:58.303Z,8.35
2022-10-16T23:52:01.591Z,9.27
2022-10-16T23:54:04.138Z,13.63
2022-10-16T23:56:06.310Z,8.13
2022-10-16T23:58:08.870Z,8.25
